Time;durP1;ratioP1;P1;durP2;ratioP2;P2;SDS_P1;SDS_P2;PMS_P1;PMS_P2;Temp;Humidity;BMP_temperature;BMP_pressure;BME280_temperature;BME280_humidity;BME280_pressure;Samples;Min_cycle;Max_cycle;Signal;HPM_P1;HPM_P2
2022/01/15 00:01:04;;;;;;;18.02;7.68;;;21.70;53.50;;;;;;4990573;28;20053;-79
2022/01/15 00:03:31;;;;;;;19.95;8.20;;;21.70;53.50;;;;;;4990637;28;20533;-80
2022/01/15 00:05:57;;;;;;;20.80;7.63;;;21.70;53.60;;;;;;4987300;28;20082;-79
2022/01/15 00:08:23;;;;;;;18.88;7.72;;;21.70;53.90;;;;;;4980614;28;20498;-78
2022/01/15 00:10:49;;;;;;;19.98;8.13;;;21.60;53.80;;;;;;4990641;28;20033;-78
2022/01/15 00:13:25;;;;;;;20.30;7.57;;;21.70;53.90;;;;;;4983436;28;20023;-76
2022/01/15 00:15:53;;;;;;;18.77;7.40;;;21.70;54.30;;;;;;4951610;28;20031;-73
2022/01/15 00:18:29;;;;;;;21.67;6.68;;;21.80;54.60;;;;;;4958189;28;20042;-72
2022/01/15 00:20:55;;;;;;;19.33;6.00;;;21.60;53.10;;;;;;4976098;28;20102;-75
2022/01/15 00:23:20;;;;;;;19.48;6.20;;;21.40;46.90;;;;;;4971285;28;20126;-76
2022/01/15 00:25:46;;;;;;;25.38;6.68;;;21.40;48.10;;;;;;4988104;28;20495;-78
2022/01/15 00:28:12;;;;;;;17.45;6.55;;;21.40;48.90;;;;;;4975011;28;20034;-76
2022/01/15 00:30:37;;;;;;;19.25;7.00;;;21.50;49.80;;;;;;4987362;28;20042;-77
2022/01/15 00:33:03;;;;;;;19.05;6.50;;;21.50;50.40;;;;;;4988284;28;20027;-76
2022/01/15 00:35:29;;;;;;;17.02;6.18;;;21.50;50.90;;;;;;4970670;28;20031;-76
2022/01/15 00:37:55;;;;;;;16.70;6.45;;;21.50;51.20;;;;;;4974691;28;20111;-76
2022/01/15 00:40:21;;;;;;;15.43;5.90;;;21.50;51.30;;;;;;4973077;28;20066;-76
2022/01/15 00:42:47;;;;;;;21.50;6.53;;;21.50;51.40;;;;;;4988187;28;20414;-76
2022/01/15 00:45:21;;;;;;;14.98;5.53;;;21.50;51.50;;;;;;4957752;28;20622;-76
2022/01/15 00:47:51;;;;;;;16.42;5.93;;;21.50;51.40;;;;;;4957826;28;20049;-76
2022/01/15 00:50:17;;;;;;;15.55;5.72;;;21.50;51.60;;;;;;4979066;28;20376;-76
2022/01/15 00:52:43;;;;;;;18.88;5.85;;;21.50;51.60;;;;;;4986954;28;20514;-76
2022/01/15 00:55:12;;;;;;;17.67;6.25;;;21.50;51.60;;;;;;4991597;28;20034;-76
2022/01/15 00:57:38;;;;;;;17.67;5.88;;;21.50;51.80;;;;;;4973558;28;20521;-77
2022/01/15 01:00:07;;;;;;;16.27;6.30;;;21.50;51.80;;;;;;4974914;28;20027;-76
2022/01/15 01:02:32;;;;;;;17.33;6.18;;;21.50;52.10;;;;;;4989850;28;20031;-78
2022/01/15 01:04:58;;;;;;;25.80;6.45;;;21.50;52.20;;;;;;4979168;28;20392;-79
2022/01/15 01:07:24;;;;;;;15.15;5.78;;;21.50;52.20;;;;;;4985855;28;20482;-77
2022/01/15 01:10:12;;;;;;;15.65;5.50;;;21.50;52.40;;;;;;4985447;28;20207;-78
2022/01/15 01:23:14;;;;;;;17.20;5.72;;;21.50;52.60;;;;;;4989908;28;20037;-76
2022/01/15 01:25:44;;;;;;;14.80;5.60;;;21.50;52.90;;;;;;4989662;28;20027;-76
2022/01/15 01:31:00;;;;;;;19.13;5.40;;;21.50;53.30;;;;;;4979643;28;19918;-76
2022/01/15 01:41:18;;;;;;;15.37;4.97;;;21.60;53.30;;;;;;4976582;28;20399;-79
2022/01/15 01:43:50;;;;;;;16.13;5.28;;;21.60;53.30;;;;;;4974053;28;20073;-78
2022/01/15 01:46:29;;;;;;;13.75;4.97;;;21.50;53.20;;;;;;4976099;28;20015;-79
2022/01/15 01:48:57;;;;;;;17.70;5.47;;;21.50;53.20;;;;;;4975316;28;20026;-78
2022/01/15 01:51:31;;;;;;;15.55;5.05;;;21.50;53.10;;;;;;4977307;28;20041;-77
2022/01/15 01:53:59;;;;;;;14.68;5.00;;;21.50;53.60;;;;;;4991076;23;20058;-76
2022/01/15 01:56:25;;;;;;;15.70;4.97;;;21.50;53.50;;;;;;4983430;28;20023;-76
2022/01/15 01:58:51;;;;;;;18.38;5.47;;;21.50;53.70;;;;;;4985855;28;20502;-76
2022/01/15 02:01:16;;;;;;;14.10;4.85;;;21.50;53.60;;;;;;4983338;28;20027;-76
2022/01/15 02:03:42;;;;;;;15.65;4.97;;;21.50;53.20;;;;;;4983846;28;20027;-76
2022/01/15 02:06:08;;;;;;;12.10;4.63;;;21.50;53.40;;;;;;4984829;28;20023;-76
2022/01/15 02:08:35;;;;;;;17.92;5.18;;;21.50;53.40;;;;;;4984501;28;20360;-76
2022/01/15 02:11:04;;;;;;;16.58;4.90;;;21.50;53.40;;;;;;4983058;28;20038;-76
2022/01/15 02:13:31;;;;;;;11.25;4.32;;;21.50;53.30;;;;;;4983310;28;20541;-77
2022/01/15 02:15:59;;;;;;;13.27;4.43;;;21.50;53.20;;;;;;4985074;28;20046;-77
2022/01/15 02:18:26;;;;;;;16.33;4.72;;;21.50;53.30;;;;;;4982412;28;20031;-78
2022/01/15 02:23:51;;;;;;;15.90;4.32;;;21.50;53.70;;;;;;4959119;28;20088;-77
2022/01/15 02:26:21;;;;;;;12.63;4.50;;;21.50;53.50;;;;;;4985628;28;20139;-78
2022/01/15 02:28:59;;;;;;;12.32;4.50;;;21.50;53.50;;;;;;4983388;28;20420;-77
2022/01/15 02:31:26;;;;;;;12.82;4.28;;;21.50;53.70;;;;;;4982962;28;20023;-77
2022/01/15 02:33:55;;;;;;;12.20;4.28;;;21.50;53.40;;;;;;4983024;28;20676;-76
2022/01/15 02:36:29;;;;;;;13.50;4.72;;;21.50;53.50;;;;;;4980379;28;20153;-76
2022/01/15 02:38:56;;;;;;;12.52;4.72;;;21.50;53.50;;;;;;4982181;28;21023;-76
2022/01/15 02:41:33;;;;;;;15.18;4.85;;;21.50;53.40;;;;;;4982415;28;20150;-76
2022/01/15 02:44:01;;;;;;;11.55;4.30;;;21.50;53.80;;;;;;4980936;28;20045;-75
2022/01/15 02:48:58;;;;;;;12.55;4.57;;;21.40;53.60;;;;;;4983599;28;20027;-76
2022/01/15 02:51:27;;;;;;;15.25;5.32;;;21.50;53.80;;;;;;4981315;28;20522;-76
2022/01/15 02:53:56;;;;;;;13.80;4.38;;;21.40;53.80;;;;;;4984696;28;20023;-76
2022/01/15 02:56:27;;;;;;;15.63;4.50;;;21.40;53.90;;;;;;4982122;28;20046;-76
2022/01/15 02:58:53;;;;;;;15.10;4.32;;;21.40;53.90;;;;;;4982035;28;20031;-76
2022/01/15 03:01:20;;;;;;;12.20;4.53;;;21.40;54.00;;;;;;4983842;28;20019;-76
2022/01/15 03:03:46;;;;;;;14.00;4.25;;;21.40;53.80;;;;;;4982005;28;20081;-76
2022/01/15 03:06:14;;;;;;;11.93;4.72;;;21.40;53.80;;;;;;4982357;28;20105;-76
2022/01/15 03:08:41;;;;;;;11.00;4.00;;;21.40;53.80;;;;;;4980449;28;20479;-76
2022/01/15 03:11:07;;;;;;;9.95;4.07;;;21.30;53.80;;;;;;4982710;28;20030;-76
2022/01/15 03:13:34;;;;;;;9.38;4.00;;;21.40;53.80;;;;;;4983318;28;20046;-76
2022/01/15 03:16:00;;;;;;;11.40;4.03;;;21.40;53.90;;;;;;4981732;28;20023;-76
2022/01/15 03:18:26;;;;;;;12.38;4.32;;;21.40;54.00;;;;;;4981697;28;20121;-76
2022/01/15 03:20:52;;;;;;;15.02;4.47;;;21.40;54.10;;;;;;4982973;28;20491;-76
2022/01/15 03:23:18;;;;;;;11.15;4.28;;;21.30;54.00;;;;;;4979185;28;20078;-76
2022/01/15 03:25:44;;;;;;;12.80;4.53;;;21.40;54.00;;;;;;4983037;28;20383;-76
2022/01/15 03:28:10;;;;;;;10.75;3.97;;;21.40;54.20;;;;;;4982958;28;20106;-76
2022/01/15 03:30:36;;;;;;;11.00;3.75;;;21.30;54.00;;;;;;4980101;28;21145;-76
2022/01/15 03:33:01;;;;;;;11.65;4.25;;;21.40;54.70;;;;;;4982841;28;20073;-76
2022/01/15 03:35:27;;;;;;;11.70;4.10;;;21.30;54.00;;;;;;4982396;28;20026;-76
2022/01/15 03:37:53;;;;;;;14.27;4.20;;;21.30;54.00;;;;;;4980632;28;20081;-76
2022/01/15 03:40:19;;;;;;;11.68;4.20;;;21.40;54.10;;;;;;4981081;28;20031;-76
2022/01/15 03:42:46;;;;;;;9.52;3.85;;;21.40;54.10;;;;;;4982188;28;20022;-76
2022/01/15 03:45:13;;;;;;;10.45;3.97;;;21.40;54.20;;;;;;4982540;28;20094;-76
2022/01/15 03:47:40;;;;;;;13.02;4.07;;;21.40;54.20;;;;;;4981091;28;20027;-76
2022/01/15 03:50:07;;;;;;;11.85;4.43;;;21.40;54.20;;;;;;4981985;28;20030;-76
2022/01/15 03:52:33;;;;;;;11.18;3.95;;;21.40;54.30;;;;;;4982491;28;20073;-76
2022/01/15 03:54:59;;;;;;;10.77;4.30;;;21.40;54.30;;;;;;4980915;28;20486;-76
2022/01/15 03:57:24;;;;;;;10.68;3.85;;;21.40;54.20;;;;;;4981368;28;20411;-76
2022/01/15 03:59:50;;;;;;;10.23;3.75;;;21.40;54.00;;;;;;4981283;28;20032;-76
2022/01/15 04:02:16;;;;;;;12.98;4.78;;;21.30;54.30;;;;;;4982620;28;20030;-76
2022/01/15 04:04:41;;;;;;;11.55;3.80;;;21.40;54.90;;;;;;4981044;28;20022;-76
2022/01/15 04:07:07;;;;;;;9.77;3.88;;;21.40;54.20;;;;;;4986241;28;20045;-76
2022/01/15 04:09:33;;;;;;;11.88;4.50;;;21.40;54.40;;;;;;4991290;28;20031;-76
2022/01/15 04:11:59;;;;;;;10.68;3.97;;;21.30;54.30;;;;;;4989777;28;20026;-76
2022/01/15 04:14:24;;;;;;;11.52;3.40;;;21.30;54.30;;;;;;4989680;28;20429;-76
2022/01/15 04:16:50;;;;;;;9.98;3.60;;;21.30;54.40;;;;;;4974296;28;20505;-76
2022/01/15 04:19:16;;;;;;;10.68;3.97;;;21.30;54.70;;;;;;4991460;28;20030;-76
2022/01/15 04:21:42;;;;;;;12.43;3.78;;;21.30;54.40;;;;;;4991946;28;20026;-76
2022/01/15 04:24:07;;;;;;;11.15;3.70;;;21.30;54.70;;;;;;4991838;28;20133;-76
2022/01/15 04:26:33;;;;;;;9.88;3.63;;;21.30;54.60;;;;;;4991806;28;20030;-75
2022/01/15 04:29:04;;;;;;;8.32;3.55;;;21.30;54.60;;;;;;4989883;28;20066;-76
2022/01/15 04:31:46;;;;;;;12.10;3.97;;;21.30;54.70;;;;;;4992057;28;20054;-76
2022/01/15 04:34:13;;;;;;;10.77;3.60;;;21.30;54.50;;;;;;4991795;28;20031;-76
2022/01/15 04:36:39;;;;;;;13.38;3.90;;;21.30;54.60;;;;;;4991714;28;20033;-76
2022/01/15 04:39:05;;;;;;;11.77;3.78;;;21.30;54.80;;;;;;4991513;28;20034;-76
2022/01/15 04:41:30;;;;;;;10.13;3.70;;;21.30;55.00;;;;;;4991571;28;20034;-76
2022/01/15 04:43:56;;;;;;;9.00;3.53;;;21.30;54.90;;;;;;4991615;28;20034;-76
2022/01/15 04:46:22;;;;;;;10.15;3.60;;;21.30;54.80;;;;;;4988749;28;20054;-76
2022/01/15 04:48:47;;;;;;;10.73;3.42;;;21.30;55.10;;;;;;4991014;28;20022;-76
2022/01/15 04:51:13;;;;;;;11.10;3.63;;;21.30;55.00;;;;;;4990568;28;20121;-76
2022/01/15 04:53:38;;;;;;;9.38;3.63;;;21.30;55.00;;;;;;4991184;28;20026;-76
2022/01/15 04:56:04;;;;;;;12.60;3.88;;;21.30;55.00;;;;;;4991592;28;20114;-76
2022/01/15 04:58:30;;;;;;;8.43;3.80;;;21.30;55.10;;;;;;4991510;28;20030;-76
2022/01/15 05:00:56;;;;;;;9.63;3.35;;;21.30;55.20;;;;;;4991123;28;20045;-76
2022/01/15 05:03:21;;;;;;;10.52;3.72;;;21.30;55.20;;;;;;4989908;28;20034;-76
2022/01/15 05:05:47;;;;;;;10.30;3.60;;;21.30;55.20;;;;;;4991436;28;20505;-76
2022/01/15 05:08:13;;;;;;;10.77;3.47;;;21.30;55.20;;;;;;4991448;28;20030;-76
2022/01/15 05:10:45;;;;;;;10.48;3.42;;;21.30;55.40;;;;;;4990895;28;20089;-76
2022/01/15 05:13:14;;;;;;;12.10;4.20;;;21.30;55.20;;;;;;4991321;28;20368;-76
2022/01/15 05:15:42;;;;;;;10.88;3.47;;;21.30;55.20;;;;;;4990094;28;20030;-76
2022/01/15 05:18:08;;;;;;;10.32;3.50;;;21.30;55.10;;;;;;4991091;28;20081;-76
2022/01/15 05:20:36;;;;;;;12.35;4.35;;;21.30;55.50;;;;;;4989916;28;20084;-76
2022/01/15 05:23:01;;;;;;;11.85;3.60;;;21.30;54.90;;;;;;4991310;28;20030;-76
2022/01/15 05:25:27;;;;;;;11.40;3.40;;;21.30;55.20;;;;;;4991151;28;20057;-76
2022/01/15 05:27:53;;;;;;;9.40;3.55;;;21.30;55.30;;;;;;4992367;28;20031;-76
2022/01/15 05:30:19;;;;;;;10.80;4.00;;;21.30;55.10;;;;;;4995013;28;20348;-76
2022/01/15 05:32:44;;;;;;;11.52;3.65;;;21.30;55.20;;;;;;4993942;28;20030;-76
2022/01/15 05:35:11;;;;;;;11.68;3.70;;;21.30;55.30;;;;;;4994873;28;20026;-77
2022/01/15 05:37:37;;;;;;;11.73;3.53;;;21.30;55.40;;;;;;4993541;28;20034;-77
2022/01/15 05:40:05;;;;;;;8.43;3.60;;;21.30;55.40;;;;;;4993806;28;20407;-77
2022/01/15 05:42:30;;;;;;;7.97;2.97;;;21.30;55.30;;;;;;4993454;28;20038;-76
2022/01/15 05:44:56;;;;;;;11.38;3.65;;;21.30;55.40;;;;;;4993149;28;20038;-76
2022/01/15 05:47:22;;;;;;;7.43;3.17;;;21.30;55.30;;;;;;4994488;28;20053;-76
2022/01/15 05:49:49;;;;;;;9.07;3.45;;;21.30;55.50;;;;;;4988578;28;20054;-76
2022/01/15 05:52:14;;;;;;;11.07;3.40;;;21.30;55.60;;;;;;4974967;28;20480;-76
2022/01/15 05:54:40;;;;;;;12.48;3.40;;;21.30;55.40;;;;;;4975083;28;20062;-76
2022/01/15 05:57:06;;;;;;;9.57;3.45;;;21.30;55.40;;;;;;4975005;28;20046;-76
2022/01/15 05:59:32;;;;;;;7.38;3.45;;;21.30;55.50;;;;;;4974590;28;20034;-76
2022/01/15 06:01:58;;;;;;;10.68;3.50;;;21.30;55.60;;;;;;4974755;28;20404;-76
2022/01/15 06:04:23;;;;;;;8.80;3.30;;;21.30;55.60;;;;;;4975070;28;20030;-76
2022/01/15 06:06:49;;;;;;;9.63;3.55;;;21.30;55.70;;;;;;4974527;28;20606;-76
2022/01/15 06:09:15;;;;;;;9.75;3.63;;;21.30;55.50;;;;;;4974404;28;20034;-76
2022/01/15 06:11:42;;;;;;;9.55;3.47;;;21.30;55.60;;;;;;4974621;28;20065;-76
2022/01/15 06:14:08;;;;;;;9.63;3.35;;;21.30;55.40;;;;;;4974571;28;20119;-76
2022/01/15 06:16:33;;;;;;;8.73;3.40;;;21.30;55.60;;;;;;4974382;28;20472;-76
2022/01/15 06:18:59;;;;;;;9.15;3.63;;;21.30;55.40;;;;;;4973060;28;20117;-76
2022/01/15 06:21:25;;;;;;;8.45;3.45;;;21.30;55.30;;;;;;4974412;28;20037;-76
2022/01/15 06:23:51;;;;;;;9.60;3.63;;;21.30;55.40;;;;;;4977111;28;20022;-76
2022/01/15 06:26:16;;;;;;;12.02;3.80;;;21.30;55.60;;;;;;4973089;28;20537;-76
2022/01/15 06:28:42;;;;;;;10.60;3.75;;;21.30;55.60;;;;;;4974198;28;20031;-76
2022/01/15 06:31:08;;;;;;;8.02;3.10;;;21.30;55.50;;;;;;4974206;28;20082;-76
2022/01/15 06:33:34;;;;;;;8.35;3.53;;;21.30;55.50;;;;;;4957062;28;20509;-76
2022/01/15 06:36:00;;;;;;;7.05;3.10;;;21.30;55.30;;;;;;4974269;28;20387;-76
2022/01/15 06:38:26;;;;;;;8.57;3.75;;;21.30;55.50;;;;;;4972541;28;20034;-76
2022/01/15 06:40:52;;;;;;;10.10;3.90;;;21.30;55.50;;;;;;4973890;28;20522;-76
2022/01/15 06:43:17;;;;;;;9.93;3.45;;;21.30;55.50;;;;;;4973795;28;20031;-76
2022/01/15 06:45:43;;;;;;;8.35;4.03;;;21.30;55.50;;;;;;4973999;28;20499;-76
2022/01/15 06:48:09;;;;;;;10.68;3.80;;;21.30;55.50;;;;;;4974177;28;20038;-77
2022/01/15 06:50:37;;;;;;;10.50;4.30;;;21.30;55.50;;;;;;4972435;28;20094;-76
2022/01/15 06:53:02;;;;;;;12.40;4.18;;;21.30;55.50;;;;;;4972629;28;20073;-76
2022/01/15 06:55:28;;;;;;;8.23;3.70;;;21.30;55.60;;;;;;4972703;28;20496;-76
2022/01/15 06:57:54;;;;;;;8.05;3.55;;;21.30;56.10;;;;;;4973955;28;20110;-76
2022/01/15 07:00:19;;;;;;;8.48;3.63;;;21.30;55.50;;;;;;4973285;28;20049;-76
2022/01/15 07:02:45;;;;;;;9.93;3.92;;;21.30;55.60;;;;;;4973515;28;20080;-76
2022/01/15 07:05:11;;;;;;;12.07;3.50;;;21.30;55.60;;;;;;4973596;28;20027;-76
2022/01/15 07:07:43;;;;;;;10.32;3.78;;;21.30;55.60;;;;;;4972107;28;20413;-76
2022/01/15 07:10:09;;;;;;;9.55;4.00;;;21.30;55.40;;;;;;4977216;28;20562;-76
2022/01/15 07:12:35;;;;;;;10.98;3.50;;;21.30;55.60;;;;;;4991073;28;20022;-76
2022/01/15 07:15:00;;;;;;;9.85;3.60;;;21.30;55.70;;;;;;4992835;28;20022;-76
2022/01/15 07:17:26;;;;;;;9.90;4.25;;;21.30;55.50;;;;;;4991421;28;20053;-76
2022/01/15 07:19:52;;;;;;;10.27;4.38;;;21.30;55.60;;;;;;4990782;28;20030;-76
2022/01/15 07:22:18;;;;;;;8.13;4.00;;;21.30;55.50;;;;;;4991592;28;20048;-76
2022/01/15 07:24:43;;;;;;;11.25;3.92;;;21.30;55.60;;;;;;4993030;28;20026;-76
2022/01/15 07:27:09;;;;;;;8.90;3.72;;;21.30;55.90;;;;;;4992218;28;20087;-75
2022/01/15 07:29:37;;;;;;;9.77;4.47;;;21.30;55.50;;;;;;4990480;28;20418;-76
2022/01/15 07:32:04;;;;;;;11.10;4.05;;;21.30;55.50;;;;;;4992278;28;20252;-76
2022/01/15 07:34:30;;;;;;;8.88;3.97;;;21.30;55.50;;;;;;4992617;28;20026;-76
2022/01/15 07:36:57;;;;;;;10.57;4.03;;;21.30;55.60;;;;;;4990983;28;20049;-76
2022/01/15 07:39:23;;;;;;;11.15;3.95;;;21.30;55.60;;;;;;4992243;28;20491;-75
2022/01/15 07:41:49;;;;;;;11.48;4.55;;;21.30;55.60;;;;;;4991820;28;20048;-75
2022/01/15 07:44:15;;;;;;;9.27;4.07;;;21.30;55.70;;;;;;4992411;28;20030;-76
2022/01/15 07:46:41;;;;;;;9.52;4.03;;;21.30;55.60;;;;;;4987329;28;20395;-75
2022/01/15 07:49:07;;;;;;;9.25;4.22;;;21.20;55.50;;;;;;4991507;28;20066;-75
2022/01/15 07:51:32;;;;;;;8.98;3.70;;;21.30;55.70;;;;;;4992028;28;20519;-76
2022/01/15 07:53:58;;;;;;;9.32;3.88;;;21.30;55.50;;;;;;4992086;28;20557;-76
2022/01/15 07:56:24;;;;;;;9.95;4.13;;;21.30;55.90;;;;;;4992210;28;20097;-76
2022/01/15 07:58:49;;;;;;;8.35;3.17;;;21.20;55.60;;;;;;4991765;28;20030;-76
2022/01/15 08:01:17;;;;;;;12.27;4.43;;;21.30;55.70;;;;;;4992234;28;20102;-75
2022/01/15 08:03:43;;;;;;;10.32;4.15;;;21.30;55.70;;;;;;4989940;28;20537;-76
2022/01/15 08:06:10;;;;;;;11.93;4.38;;;21.30;55.60;;;;;;4990878;28;20045;-75
2022/01/15 08:08:37;;;;;;;8.82;4.22;;;21.30;55.60;;;;;;4991872;28;20034;-76
2022/01/15 08:11:03;;;;;;;9.32;4.03;;;21.20;55.50;;;;;;4991799;28;20054;-76
2022/01/15 08:13:31;;;;;;;9.07;4.03;;;21.30;55.70;;;;;;4991879;28;20037;-75
2022/01/15 08:15:59;;;;;;;7.95;3.58;;;21.20;55.90;;;;;;4992128;28;20026;-76
2022/01/15 08:18:26;;;;;;;8.27;3.97;;;21.20;55.70;;;;;;4991783;28;20034;-75
2022/01/15 08:20:52;;;;;;;9.57;3.72;;;21.30;55.90;;;;;;4989637;28;20506;-75
2022/01/15 08:23:17;;;;;;;10.07;4.20;;;21.20;55.60;;;;;;4991845;28;20030;-76
2022/01/15 08:25:43;;;;;;;10.02;3.90;;;21.30;56.40;;;;;;4991644;28;20177;-76
2022/01/15 08:28:09;;;;;;;11.35;4.50;;;21.30;55.70;;;;;;4991669;28;20030;-76
2022/01/15 08:30:34;;;;;;;8.85;4.07;;;21.30;55.60;;;;;;4991553;28;20531;-76
2022/01/15 08:33:00;;;;;;;10.38;4.63;;;21.30;55.80;;;;;;4991669;28;20109;-76
2022/01/15 08:35:26;;;;;;;8.40;4.00;;;21.30;55.60;;;;;;4991764;28;20033;-76
2022/01/15 08:37:54;;;;;;;11.95;4.85;;;21.30;55.60;;;;;;4988959;28;20038;-76
2022/01/15 08:40:21;;;;;;;8.90;4.07;;;21.30;55.80;;;;;;4990543;28;20030;-76
2022/01/15 08:42:48;;;;;;;7.05;3.90;;;21.30;55.60;;;;;;4991811;28;20034;-75
2022/01/15 08:45:15;;;;;;;11.05;4.03;;;21.30;55.60;;;;;;4991920;28;20037;-76
2022/01/15 08:47:42;;;;;;;9.15;4.25;;;21.30;55.60;;;;;;4991480;28;20034;-76
2022/01/15 08:50:10;;;;;;;10.63;4.38;;;21.30;55.70;;;;;;4991313;28;20030;-75
2022/01/15 08:52:36;;;;;;;10.52;4.60;;;21.20;55.60;;;;;;4989993;28;20551;-76
2022/01/15 08:55:06;;;;;;;10.82;4.40;;;21.20;55.60;;;;;;4990129;28;20479;-76
2022/01/15 08:57:32;;;;;;;9.50;4.32;;;21.20;55.70;;;;;;4990891;28;20027;-76
2022/01/15 08:59:58;;;;;;;9.73;4.38;;;21.20;55.60;;;;;;4991218;28;20027;-77
2022/01/15 09:02:24;;;;;;;10.45;4.03;;;21.20;55.60;;;;;;4991705;28;20037;-76
2022/01/15 09:04:49;;;;;;;8.88;3.75;;;21.20;55.80;;;;;;4995322;28;20026;-75
2022/01/15 09:07:15;;;;;;;13.60;4.63;;;21.20;55.60;;;;;;4995209;28;20076;-75
2022/01/15 09:09:41;;;;;;;9.95;4.03;;;21.20;55.90;;;;;;4990060;28;20027;-75
2022/01/15 09:12:07;;;;;;;10.32;4.47;;;21.20;55.70;;;;;;4975628;28;20484;-76
2022/01/15 09:14:33;;;;;;;11.73;4.13;;;21.20;55.60;;;;;;4975450;28;20534;-75
2022/01/15 09:16:59;;;;;;;9.38;4.25;;;21.20;55.70;;;;;;4975957;28;20031;-75
2022/01/15 09:19:25;;;;;;;8.02;3.92;;;21.20;55.70;;;;;;4975185;28;20027;-76
2022/01/15 09:21:50;;;;;;;10.05;4.38;;;21.20;55.60;;;;;;4975739;28;20034;-76
2022/01/15 09:24:16;;;;;;;10.25;4.47;;;21.20;55.80;;;;;;4983335;28;20487;-76
2022/01/15 09:27:01;;;;;;;10.00;4.40;;;21.20;55.70;;;;;;4994857;28;20134;-75
2022/01/15 09:32:12;;;;;;;10.15;4.55;;;21.20;55.80;;;;;;4994634;28;20025;-76
2022/01/15 09:34:37;;;;;;;9.77;4.20;;;21.20;55.70;;;;;;4994454;28;20106;-76
2022/01/15 09:37:06;;;;;;;11.45;4.30;;;21.20;55.90;;;;;;4994896;28;20050;-76
2022/01/15 09:39:32;;;;;;;10.15;4.57;;;21.20;55.70;;;;;;4992691;28;20212;-75
2022/01/15 09:41:58;;;;;;;9.45;4.10;;;21.20;55.70;;;;;;4994901;28;20077;-75
2022/01/15 09:44:25;;;;;;;8.43;4.40;;;21.20;55.80;;;;;;4993316;28;20491;-76
2022/01/15 09:46:52;;;;;;;10.52;4.40;;;21.20;55.70;;;;;;4993109;28;20030;-76
2022/01/15 09:49:22;;;;;;;12.43;4.38;;;21.20;56.20;;;;;;4994057;28;20041;-76
2022/01/15 09:51:48;;;;;;;8.65;4.43;;;21.20;55.80;;;;;;4991353;28;20028;-76
2022/01/15 09:54:15;;;;;;;9.02;4.47;;;21.20;55.80;;;;;;4975001;28;20031;-76
2022/01/15 09:56:41;;;;;;;10.10;4.28;;;21.20;56.10;;;;;;4974977;28;20077;-75
2022/01/15 09:59:07;;;;;;;10.15;4.80;;;21.20;55.70;;;;;;4974685;28;20295;-75
2022/01/15 10:01:33;;;;;;;11.23;4.47;;;21.20;55.50;;;;;;4973759;28;20027;-76
2022/01/15 10:03:59;;;;;;;10.02;4.40;;;21.20;55.90;;;;;;4974641;28;20089;-76
2022/01/15 10:06:26;;;;;;;11.55;4.57;;;21.20;55.70;;;;;;4975374;28;20030;-75
2022/01/15 10:09:00;;;;;;;10.25;4.45;;;21.20;55.90;;;;;;4974279;28;20042;-76
2022/01/15 10:11:48;;;;;;;8.82;4.03;;;21.20;55.60;;;;;;4973617;28;20031;-76
2022/01/15 10:14:42;;;;;;;10.23;4.65;;;21.20;55.30;;;;;;4973024;28;20553;-76
2022/01/15 10:17:27;;;;;;;9.85;4.20;;;21.20;55.50;;;;;;4983098;28;20057;-76
2022/01/15 10:19:56;;;;;;;8.32;4.45;;;21.20;55.60;;;;;;4993630;28;20031;-76
2022/01/15 10:22:24;;;;;;;9.30;4.53;;;21.20;55.60;;;;;;4994013;28;20093;-76
2022/01/15 10:25:01;;;;;;;10.43;4.93;;;21.20;55.60;;;;;;4994107;28;20030;-75
2022/01/15 10:27:39;;;;;;;11.95;4.75;;;21.20;55.70;;;;;;4980297;28;20535;-76
2022/01/15 10:30:17;;;;;;;10.95;4.80;;;21.20;55.80;;;;;;4974528;28;20034;-76
2022/01/15 10:33:03;;;;;;;10.32;4.07;;;21.20;55.70;;;;;;4973109;28;20108;-76
2022/01/15 10:35:39;;;;;;;13.48;4.53;;;21.20;56.00;;;;;;4973126;28;20081;-76
2022/01/15 10:38:12;;;;;;;11.63;4.82;;;21.20;55.90;;;;;;4991037;28;20526;-76
2022/01/15 10:40:51;;;;;;;12.27;4.63;;;21.20;56.10;;;;;;4993213;28;20258;-76
2022/01/15 10:43:19;;;;;;;11.52;4.60;;;21.20;56.10;;;;;;4990048;28;20448;-77
2022/01/15 10:45:53;;;;;;;9.68;4.50;;;21.20;56.00;;;;;;4993250;28;20030;-76
2022/01/15 10:48:26;;;;;;;11.52;4.47;;;21.20;56.00;;;;;;4961389;28;20084;-75
2022/01/15 10:50:57;;;;;;;10.05;5.10;;;21.20;56.20;;;;;;4991594;28;20057;-75
2022/01/15 10:53:33;;;;;;;11.27;4.63;;;21.30;56.50;;;;;;4991968;28;20057;-75
2022/01/15 10:55:59;;;;;;;11.02;4.95;;;21.30;56.20;;;;;;4991141;28;20033;-76
2022/01/15 10:58:24;;;;;;;13.80;5.13;;;21.30;56.30;;;;;;4976098;28;20027;-74
2022/01/15 11:00:52;;;;;;;16.83;5.70;;;21.30;56.10;;;;;;4973444;28;20376;-76
2022/01/15 11:03:19;;;;;;;16.77;5.35;;;21.30;55.80;;;;;;4972275;28;20041;-76
2022/01/15 11:05:49;;;;;;;15.73;5.40;;;21.30;55.60;;;;;;4972331;28;20041;-77
2022/01/15 11:08:22;;;;;;;14.52;6.13;;;21.30;55.70;;;;;;4987811;28;20041;-77
2022/01/15 11:10:51;;;;;;;20.67;6.03;;;21.30;55.70;;;;;;4992910;28;20026;-77
2022/01/15 11:13:20;;;;;;;18.85;6.40;;;21.30;55.80;;;;;;4991844;28;20026;-77
2022/01/15 11:15:49;;;;;;;16.70;6.13;;;21.30;56.60;;;;;;4991242;28;20398;-76
2022/01/15 11:18:31;;;;;;;18.77;6.47;;;21.40;56.90;;;;;;4983543;28;20089;-77
2022/01/15 11:21:03;;;;;;;21.13;6.35;;;21.40;57.40;;;;;;4992078;28;20045;-77
2022/01/15 11:23:31;;;;;;;22.70;6.75;;;21.30;57.30;;;;;;4968817;28;20030;-76
2022/01/15 11:26:00;;;;;;;19.33;5.70;;;21.40;57.90;;;;;;4992048;28;20108;-76
2022/01/15 11:28:29;;;;;;;18.42;6.65;;;21.40;57.80;;;;;;4992154;28;20041;-76
2022/01/15 11:31:05;;;;;;;15.93;5.93;;;21.30;57.40;;;;;;4991111;28;20391;-76
2022/01/15 11:33:35;;;;;;;19.23;6.68;;;21.30;57.90;;;;;;4992485;28;20279;-76
2022/01/15 11:36:02;;;;;;;18.25;6.07;;;21.30;57.50;;;;;;4991731;28;20372;-76
2022/01/15 11:38:33;;;;;;;15.23;6.20;;;21.30;57.40;;;;;;4971879;28;20030;-78
2022/01/15 11:40:59;;;;;;;22.70;6.22;;;21.30;57.10;;;;;;4971321;28;20031;-76
2022/01/15 11:43:25;;;;;;;17.85;6.65;;;21.30;57.20;;;;;;4991046;28;20026;-76
2022/01/15 11:45:53;;;;;;;20.50;6.50;;;21.30;56.40;;;;;;4992593;28;20038;-75
2022/01/15 11:48:22;;;;;;;21.20;6.63;;;21.30;55.60;;;;;;4979721;28;20027;-76
2022/01/15 11:51:13;;;;;;;23.17;8.20;;;21.20;55.20;;;;;;4972719;28;20027;-77
2022/01/15 11:53:57;;;;;;;24.88;8.23;;;21.20;55.60;;;;;;4970650;28;20038;-77
2022/01/15 11:56:29;;;;;;;23.10;7.55;;;21.20;55.80;;;;;;4989265;28;20049;-77
2022/01/15 11:58:56;;;;;;;25.08;7.88;;;21.30;56.00;;;;;;4973466;28;20023;-77
2022/01/15 12:01:43;;;;;;;23.63;8.93;;;21.30;56.00;;;;;;4972645;28;20507;-76
2022/01/15 12:04:24;;;;;;;26.23;8.82;;;21.30;55.50;;;;;;4981899;28;20041;-76
2022/01/15 12:07:07;;;;;;;26.65;9.23;;;21.30;55.30;;;;;;4992142;28;20034;-77
2022/01/15 12:09:44;;;;;;;39.28;10.55;;;21.30;55.60;;;;;;4992058;28;20483;-77
2022/01/15 12:12:19;;;;;;;32.33;11.07;;;21.40;56.10;;;;;;4958938;28;20121;-77
2022/01/15 12:14:59;;;;;;;33.88;11.98;;;21.40;56.30;;;;;;4990270;28;20138;-76
2022/01/15 12:17:36;;;;;;;35.47;12.48;;;21.40;56.60;;;;;;4992404;28;20064;-77
2022/01/15 12:20:17;;;;;;;27.35;9.88;;;21.50;57.00;;;;;;4990094;28;20034;-76
2022/01/15 12:22:51;;;;;;;23.15;8.57;;;21.40;54.30;;;;;;4989921;28;20027;-76
2022/01/15 12:25:16;;;;;;;27.77;11.30;;;21.30;54.00;;;;;;4963217;28;20057;-74
2022/01/15 12:27:55;;;;;;;29.30;12.07;;;21.20;51.60;;;;;;4991143;28;20030;-78
2022/01/15 12:30:23;;;;;;;28.85;11.77;;;21.10;49.50;;;;;;4984184;28;20029;-76
2022/01/15 12:32:53;;;;;;;32.25;12.55;;;21.10;50.60;;;;;;4971415;28;20037;-78
2022/01/15 12:35:23;;;;;;;30.33;11.45;;;21.10;51.40;;;;;;4971523;28;20029;-77
2022/01/15 12:37:56;;;;;;;37.15;13.13;;;21.20;53.70;;;;;;4942192;28;20038;-77
2022/01/15 12:40:35;;;;;;;35.42;12.13;;;21.30;54.80;;;;;;4975229;28;20046;-77
2022/01/15 12:43:09;;;;;;;29.73;11.90;;;21.30;54.70;;;;;;4985112;28;20126;-76
2022/01/15 12:45:38;;;;;;;35.28;12.23;;;21.30;54.60;;;;;;4979655;28;20026;-77
2022/01/15 12:48:04;;;;;;;31.50;11.75;;;21.40;54.70;;;;;;4976646;28;20785;-77
2022/01/15 12:50:46;;;;;;;37.95;13.48;;;21.40;54.40;;;;;;4975198;28;20519;-78
2022/01/15 12:53:12;;;;;;;40.95;13.80;;;21.40;54.90;;;;;;4979813;28;20050;-78
2022/01/15 12:55:39;;;;;;;39.83;14.15;;;21.40;55.30;;;;;;4994926;28;20061;-77
2022/01/15 12:58:08;;;;;;;39.55;13.70;;;21.50;57.30;;;;;;4993806;28;20408;-77
2022/01/15 13:00:36;;;;;;;37.42;13.48;;;21.50;55.90;;;;;;4991171;28;20162;-77
2022/01/15 13:03:08;;;;;;;37.47;13.32;;;21.50;56.00;;;;;;4979065;28;20056;-77
2022/01/15 13:05:40;;;;;;;39.35;12.90;;;21.50;56.30;;;;;;4995144;28;20026;-73
2022/01/15 13:08:16;;;;;;;27.25;11.40;;;21.50;55.70;;;;;;4995482;28;20026;-78
2022/01/15 13:10:56;;;;;;;33.03;11.30;;;21.50;55.50;;;;;;4993802;28;20089;-77
2022/01/15 13:13:27;;;;;;;32.28;12.07;;;21.40;55.50;;;;;;4983246;28;20027;-79